BAW1554 EGKK-EDDF
Flight info
| Callsign | BAW1554 |
|---|---|
| Flight time | N/A |
| Altitude | 35000 |
| Route | MIMFO Y312 DVR UL9 KONAN UL607 SPI T180 NIVNU/N0427F230 T847 IMCOM IMCOM1D |
| Aircraft | B763/H-SDE3FGHIM3RWXY/LB1 |
Departure
| Time | 2026-04-14 14:41 |
|---|---|
| Airport | London Gatwick Airport (EGKK) |
Arrival
| Time | N/A |
|---|---|
| Airport | Frankfurt Main Airport (EDDF) |
| Time | Latitude | Longitude | Altitude | Speed | Heading |
|---|---|---|---|---|---|
| 2026-04-14 14:14 | 51.15604 | -0.16780 | 199 ft | 0 kts | 167° |
| 2026-04-14 14:26 | 51.15608 | -0.16782 | 199 ft | 2 kts | 167° |
| 2026-04-14 14:26 | 51.15622 | -0.16787 | 199 ft | 2 kts | 167° |
| 2026-04-14 14:26 | 51.15636 | -0.16789 | 199 ft | 2 kts | 187° |
| 2026-04-14 14:26 | 51.15651 | -0.16783 | 199 ft | 2 kts | 202° |
| 2026-04-14 14:27 | 51.15664 | -0.16772 | 199 ft | 2 kts | 217° |
| 2026-04-14 14:27 | 51.15674 | -0.16755 | 199 ft | 2 kts | 233° |
| 2026-04-14 14:27 | 51.15682 | -0.16735 | 199 ft | 2 kts | 249° |
| 2026-04-14 14:27 | 51.15685 | -0.16721 | 199 ft | 1 kts | 258° |
| 2026-04-14 14:28 | 51.15686 | -0.16714 | 199 ft | 0 kts | 258° |
| 2026-04-14 14:31 | 51.15681 | -0.16747 | 199 ft | 7 kts | 257° |
| 2026-04-14 14:31 | 51.15665 | -0.16859 | 199 ft | 10 kts | 256° |
| 2026-04-14 14:31 | 51.15650 | -0.16967 | 199 ft | 10 kts | 258° |
| 2026-04-14 14:32 | 51.15644 | -0.17014 | 199 ft | 1 kts | 259° |
| 2026-04-14 14:32 | 51.15637 | -0.17067 | 199 ft | 8 kts | 257° |
| 2026-04-14 14:32 | 51.15618 | -0.17195 | 199 ft | 13 kts | 257° |
| 2026-04-14 14:32 | 51.15599 | -0.17324 | 199 ft | 12 kts | 257° |
| 2026-04-14 14:33 | 51.15581 | -0.17419 | 199 ft | 7 kts | 238° |
| 2026-04-14 14:33 | 51.15531 | -0.17434 | 199 ft | 8 kts | 170° |
| 2026-04-14 14:33 | 51.15453 | -0.17409 | 199 ft | 14 kts | 168° |
| 2026-04-14 14:33 | 51.15366 | -0.17379 | 199 ft | 11 kts | 167° |
| 2026-04-14 14:34 | 51.15260 | -0.17332 | 199 ft | 0 kts | 152° |
| 2026-04-14 14:36 | 51.15260 | -0.17331 | 199 ft | 1 kts | 152° |
| 2026-04-14 14:37 | 51.15238 | -0.17312 | 199 ft | 5 kts | 147° |
| 2026-04-14 14:37 | 51.15203 | -0.17272 | 199 ft | 5 kts | 144° |
| 2026-04-14 14:37 | 51.15202 | -0.17272 | 199 ft | 0 kts | 144° |
| 2026-04-14 14:39 | 51.15168 | -0.17232 | 199 ft | 13 kts | 142° |
| 2026-04-14 14:40 | 51.15104 | -0.17149 | 199 ft | 13 kts | 173° |
| 2026-04-14 14:40 | 51.15062 | -0.17220 | 199 ft | 4 kts | 258° |
| 2026-04-14 14:40 | 51.15059 | -0.17244 | 199 ft | 0 kts | 258° |
| 2026-04-14 14:41 | 51.15058 | -0.17254 | 199 ft | 10 kts | 258° |
| 2026-04-14 14:41 | 51.14967 | -0.17894 | 199 ft | 111 kts | 258° |
| 2026-04-14 14:41 | 51.14727 | -0.19697 | 217 ft | 216 kts | 256° |
| 2026-04-14 14:41 | 51.14386 | -0.22345 | 1121 ft | 261 kts | 256° |
| 2026-04-14 14:42 | 51.14073 | -0.24860 | 2073 ft | 234 kts | 256° |
| 2026-04-14 14:42 | 51.13762 | -0.27347 | 2341 ft | 228 kts | 256° |
| 2026-04-14 14:42 | 51.13454 | -0.29827 | 2741 ft | 231 kts | 255° |
| 2026-04-14 14:42 | 51.13160 | -0.32316 | 3153 ft | 232 kts | 256° |
| 2026-04-14 14:43 | 51.12843 | -0.34822 | 3323 ft | 231 kts | 249° |
| 2026-04-14 14:43 | 51.12345 | -0.37281 | 3244 ft | 233 kts | 262° |
| 2026-04-14 14:43 | 51.12701 | -0.39773 | 3373 ft | 239 kts | 290° |
| 2026-04-14 14:43 | 51.13539 | -0.42078 | 3297 ft | 249 kts | 313° |
| 2026-04-14 14:44 | 51.15085 | -0.43223 | 3368 ft | 252 kts | 354° |
| 2026-04-14 14:44 | 51.16788 | -0.42701 | 3330 ft | 255 kts | 30° |
| 2026-04-14 14:44 | 51.17941 | -0.40690 | 3534 ft | 249 kts | 69° |
| 2026-04-14 14:44 | 51.18514 | -0.38063 | 3932 ft | 252 kts | 77° |
| 2026-04-14 14:45 | 51.18978 | -0.35387 | 4228 ft | 251 kts | 78° |
| 2026-04-14 14:45 | 51.19441 | -0.32708 | 4424 ft | 258 kts | 78° |
| 2026-04-14 14:45 | 51.19906 | -0.29963 | 4399 ft | 257 kts | 78° |
| 2026-04-14 14:45 | 51.20351 | -0.27242 | 4415 ft | 256 kts | 78° |
| 2026-04-14 14:46 | 51.20792 | -0.24500 | 4431 ft | 250 kts | 78° |
| 2026-04-14 14:46 | 51.21241 | -0.21838 | 4399 ft | 252 kts | 79° |
| 2026-04-14 14:46 | 51.21687 | -0.19133 | 4325 ft | 252 kts | 78° |
| 2026-04-14 14:46 | 51.22106 | -0.16463 | 4745 ft | 254 kts | 78° |
| 2026-04-14 14:47 | 51.22543 | -0.13686 | 5113 ft | 254 kts | 79° |
| 2026-04-14 14:47 | 51.23007 | -0.10906 | 5219 ft | 263 kts | 78° |
| 2026-04-14 14:47 | 51.23431 | -0.08115 | 5226 ft | 260 kts | 80° |
| 2026-04-14 14:47 | 51.23825 | -0.05315 | 5220 ft | 257 kts | 81° |
| 2026-04-14 14:48 | 51.24223 | -0.02525 | 5222 ft | 258 kts | 80° |
| 2026-04-14 14:48 | 51.24616 | 0.00258 | 5232 ft | 260 kts | 79° |
| 2026-04-14 14:48 | 51.24998 | 0.03122 | 5230 ft | 259 kts | 81° |
| 2026-04-14 14:48 | 51.25383 | 0.05883 | 5222 ft | 259 kts | 80° |
| 2026-04-14 14:49 | 51.25774 | 0.08683 | 5227 ft | 259 kts | 79° |
| 2026-04-14 14:49 | 51.26158 | 0.11509 | 5222 ft | 258 kts | 81° |
| 2026-04-14 14:49 | 51.26547 | 0.14313 | 5264 ft | 255 kts | 81° |
| 2026-04-14 14:49 | 51.26941 | 0.17055 | 5760 ft | 264 kts | 81° |
| 2026-04-14 14:50 | 51.27340 | 0.19856 | 6232 ft | 266 kts | 80° |
| 2026-04-14 14:50 | 51.27746 | 0.22727 | 6705 ft | 272 kts | 78° |
| 2026-04-14 14:50 | 51.27997 | 0.24492 | 7000 ft | 270 kts | 79° |
| 2026-04-14 14:50 | 51.28410 | 0.27413 | 7469 ft | 271 kts | 79° |
| 2026-04-14 14:51 | 51.28824 | 0.30339 | 7947 ft | 274 kts | 79° |
| 2026-04-14 14:51 | 51.29241 | 0.33320 | 8424 ft | 277 kts | 79° |
| 2026-04-14 14:51 | 51.29660 | 0.36316 | 8906 ft | 280 kts | 79° |
| 2026-04-14 14:51 | 51.30079 | 0.39333 | 9374 ft | 283 kts | 78° |
| 2026-04-14 14:52 | 51.30414 | 0.42450 | 9825 ft | 284 kts | 94° |
| 2026-04-14 14:52 | 51.29844 | 0.45341 | 10302 ft | 274 kts | 131° |
| 2026-04-14 14:52 | 51.28561 | 0.47529 | 10891 ft | 273 kts | 143° |
| 2026-04-14 14:52 | 51.27151 | 0.49491 | 11383 ft | 276 kts | 145° |
| 2026-04-14 14:53 | 51.25686 | 0.51527 | 11855 ft | 282 kts | 139° |
| 2026-04-14 14:53 | 51.24622 | 0.54165 | 12311 ft | 293 kts | 118° |
| 2026-04-14 14:53 | 51.23878 | 0.57227 | 12839 ft | 300 kts | 110° |
| 2026-04-14 14:53 | 51.23324 | 0.60434 | 13322 ft | 305 kts | 106° |
| 2026-04-14 14:54 | 51.22875 | 0.63747 | 13813 ft | 309 kts | 104° |
| 2026-04-14 14:54 | 51.22459 | 0.67122 | 14283 ft | 313 kts | 105° |
| 2026-04-14 14:54 | 51.22053 | 0.70522 | 14761 ft | 316 kts | 105° |
| 2026-04-14 14:54 | 51.21645 | 0.73966 | 15218 ft | 320 kts | 104° |
| 2026-04-14 14:55 | 51.21238 | 0.77457 | 15695 ft | 324 kts | 104° |
| 2026-04-14 14:55 | 51.20829 | 0.81003 | 16170 ft | 328 kts | 104° |
| 2026-04-14 14:55 | 51.20421 | 0.84566 | 16632 ft | 332 kts | 104° |
| 2026-04-14 14:55 | 51.20012 | 0.88173 | 17103 ft | 335 kts | 104° |
| 2026-04-14 14:56 | 51.19261 | 0.94921 | 17970 ft | 343 kts | 104° |
| 2026-04-14 14:56 | 51.18850 | 0.98664 | 18434 ft | 346 kts | 104° |
| 2026-04-14 14:56 | 51.18411 | 1.02456 | 18916 ft | 348 kts | 106° |
| 2026-04-14 14:57 | 51.17935 | 1.06213 | 19383 ft | 350 kts | 108° |
| 2026-04-14 14:57 | 51.17381 | 1.09984 | 19860 ft | 354 kts | 106° |
| 2026-04-14 14:57 | 51.17008 | 1.13900 | 20336 ft | 359 kts | 103° |
| 2026-04-14 14:57 | 51.16683 | 1.17826 | 20817 ft | 362 kts | 102° |
| 2026-04-14 14:58 | 51.16367 | 1.21795 | 21292 ft | 366 kts | 102° |
| 2026-04-14 14:58 | 51.16135 | 1.25833 | 21760 ft | 373 kts | 96° |
| 2026-04-14 14:58 | 51.16060 | 1.29943 | 22239 ft | 378 kts | 95° |
| 2026-04-14 14:58 | 51.16004 | 1.34035 | 22712 ft | 382 kts | 95° |
| 2026-04-14 14:59 | 51.15945 | 1.38346 | 23203 ft | 387 kts | 95° |
| 2026-04-14 14:59 | 51.15837 | 1.46827 | 24149 ft | 396 kts | 95° |
| 2026-04-14 14:59 | 51.15786 | 1.51157 | 24623 ft | 400 kts | 95° |
| 2026-04-14 15:00 | 51.15736 | 1.55618 | 25106 ft | 405 kts | 95° |
| 2026-04-14 15:00 | 51.15683 | 1.60108 | 25588 ft | 409 kts | 95° |
| 2026-04-14 15:00 | 51.15631 | 1.64568 | 26065 ft | 414 kts | 95° |
| 2026-04-14 15:00 | 51.15581 | 1.69195 | 26537 ft | 418 kts | 96° |
| 2026-04-14 15:01 | 51.15534 | 1.73844 | 27004 ft | 423 kts | 96° |
| 2026-04-14 15:01 | 51.15486 | 1.78514 | 27471 ft | 427 kts | 96° |
| 2026-04-14 15:01 | 51.15247 | 1.83203 | 27932 ft | 426 kts | 106° |
| 2026-04-14 15:01 | 51.14631 | 1.87732 | 28412 ft | 424 kts | 115° |
| 2026-04-14 15:02 | 51.13663 | 1.92079 | 28871 ft | 419 kts | 124° |
| 2026-04-14 15:02 | 51.12363 | 1.96186 | 29361 ft | 415 kts | 130° |
| 2026-04-14 15:02 | 51.10965 | 2.00212 | 29861 ft | 420 kts | 130° |
| 2026-04-14 15:02 | 51.09527 | 2.04326 | 30346 ft | 436 kts | 131° |
| 2026-04-14 15:03 | 51.08000 | 2.08593 | 30926 ft | 454 kts | 131° |
| 2026-04-14 15:03 | 51.06616 | 2.13223 | 31425 ft | 484 kts | 118° |
| 2026-04-14 15:03 | 51.05805 | 2.18462 | 31935 ft | 505 kts | 103° |
| 2026-04-14 15:03 | 51.05647 | 2.24061 | 32449 ft | 519 kts | 89° |
| 2026-04-14 15:04 | 51.06099 | 2.29811 | 32989 ft | 527 kts | 82° |
| 2026-04-14 15:04 | 51.06700 | 2.35525 | 33531 ft | 533 kts | 81° |
| 2026-04-14 15:04 | 51.07323 | 2.41380 | 34008 ft | 539 kts | 81° |
| 2026-04-14 15:04 | 51.07947 | 2.47269 | 34495 ft | 543 kts | 81° |
| 2026-04-14 15:05 | 51.08570 | 2.53171 | 34986 ft | 546 kts | 81° |
| 2026-04-14 15:05 | 51.09191 | 2.59078 | 35100 ft | 551 kts | 81° |
| 2026-04-14 15:05 | 51.09963 | 2.70994 | 35061 ft | 543 kts | 95° |
| 2026-04-14 15:06 | 51.09451 | 2.82777 | 35076 ft | 537 kts | 103° |
| 2026-04-14 15:06 | 51.08212 | 2.94433 | 35122 ft | 535 kts | 107° |
| 2026-04-14 15:07 | 51.06962 | 3.04875 | 35165 ft | 535 kts | 109° |
| 2026-04-14 15:07 | 51.06047 | 3.10641 | 35217 ft | 546 kts | 110° |
| 2026-04-14 15:07 | 51.05071 | 3.16463 | 35233 ft | 556 kts | 110° |
| 2026-04-14 15:08 | 51.03054 | 3.28300 | 35192 ft | 559 kts | 110° |
| 2026-04-14 15:08 | 51.01022 | 3.40028 | 35183 ft | 555 kts | 110° |
| 2026-04-14 15:09 | 50.98718 | 3.51568 | 35174 ft | 543 kts | 120° |
| 2026-04-14 15:09 | 50.95333 | 3.62039 | 35177 ft | 533 kts | 127° |
| 2026-04-14 15:10 | 50.93397 | 3.66893 | 35204 ft | 522 kts | 133° |
| 2026-04-14 15:10 | 50.91262 | 3.71395 | 35183 ft | 515 kts | 138° |
| 2026-04-14 15:10 | 50.86841 | 3.80091 | 35141 ft | 523 kts | 122° |
| 2026-04-14 15:11 | 50.85544 | 3.85390 | 35282 ft | 530 kts | 112° |
| 2026-04-14 15:11 | 50.84428 | 3.90953 | 35232 ft | 534 kts | 111° |
| 2026-04-14 15:11 | 50.82270 | 4.01924 | 35216 ft | 532 kts | 111° |
| 2026-04-14 15:12 | 50.80107 | 4.12896 | 35216 ft | 532 kts | 111° |
| 2026-04-14 15:12 | 50.77920 | 4.23950 | 35208 ft | 532 kts | 111° |
| 2026-04-14 15:13 | 50.75712 | 4.35097 | 35219 ft | 532 kts | 110° |
| 2026-04-14 15:13 | 50.73790 | 4.46171 | 35224 ft | 534 kts | 108° |
| 2026-04-14 15:14 | 50.71905 | 4.57281 | 35213 ft | 534 kts | 108° |
| 2026-04-14 15:14 | 50.70144 | 4.68651 | 35212 ft | 534 kts | 107° |
| 2026-04-14 15:15 | 50.68481 | 4.79905 | 35222 ft | 534 kts | 107° |
| 2026-04-14 15:15 | 50.66786 | 4.91206 | 35214 ft | 533 kts | 106° |
| 2026-04-14 15:16 | 50.65019 | 5.02561 | 35215 ft | 533 kts | 106° |
| 2026-04-14 15:16 | 50.63218 | 5.13785 | 35218 ft | 532 kts | 106° |
| 2026-04-14 15:17 | 50.61415 | 5.24941 | 35222 ft | 533 kts | 106° |
| 2026-04-14 15:17 | 50.59605 | 5.36101 | 35210 ft | 533 kts | 106° |
| 2026-04-14 15:18 | 50.57787 | 5.47265 | 35206 ft | 532 kts | 106° |
| 2026-04-14 15:18 | 50.55972 | 5.58376 | 35221 ft | 533 kts | 106° |
| 2026-04-14 15:19 | 50.54203 | 5.69162 | 35201 ft | 532 kts | 107° |
| 2026-04-14 15:19 | 50.52203 | 5.81414 | 35206 ft | 532 kts | 107° |
| 2026-04-14 15:20 | 50.48660 | 6.03003 | 35203 ft | 533 kts | 107° |
| 2026-04-14 15:21 | 50.46820 | 6.14145 | 35204 ft | 533 kts | 107° |
| 2026-04-14 15:21 | 50.44569 | 6.25258 | 35210 ft | 531 kts | 111° |
| 2026-04-14 15:22 | 50.42188 | 6.36203 | 35231 ft | 531 kts | 111° |
| 2026-04-14 15:22 | 50.40980 | 6.41734 | 35019 ft | 533 kts | 111° |
| 2026-04-14 15:22 | 50.39779 | 6.47231 | 34652 ft | 531 kts | 111° |
| 2026-04-14 15:23 | 50.38596 | 6.52647 | 34303 ft | 527 kts | 111° |
| 2026-04-14 15:23 | 50.37406 | 6.58095 | 33961 ft | 523 kts | 111° |
| 2026-04-14 15:23 | 50.36264 | 6.63312 | 33603 ft | 520 kts | 111° |
| 2026-04-14 15:23 | 50.35088 | 6.68685 | 32874 ft | 521 kts | 112° |
| 2026-04-14 15:24 | 50.33913 | 6.74062 | 32003 ft | 523 kts | 112° |
| 2026-04-14 15:24 | 50.32736 | 6.79429 | 30819 ft | 532 kts | 112° |
| 2026-04-14 15:24 | 50.31530 | 6.84896 | 29647 ft | 538 kts | 112° |
| 2026-04-14 15:24 | 50.30304 | 6.90449 | 28498 ft | 541 kts | 111° |
| 2026-04-14 15:25 | 50.29221 | 6.96140 | 27287 ft | 546 kts | 106° |
| 2026-04-14 15:25 | 50.28428 | 7.02001 | 26151 ft | 547 kts | 101° |
| 2026-04-14 15:25 | 50.27920 | 7.07930 | 24982 ft | 548 kts | 96° |
| 2026-04-14 15:25 | 50.27533 | 7.13797 | 23816 ft | 545 kts | 101° |
| 2026-04-14 15:26 | 50.26434 | 7.19368 | 22568 ft | 540 kts | 116° |
| 2026-04-14 15:26 | 50.24697 | 7.24486 | 21459 ft | 531 kts | 124° |
| 2026-04-14 15:26 | 50.22657 | 7.29336 | 20369 ft | 523 kts | 127° |
| 2026-04-14 15:26 | 50.20641 | 7.33977 | 19193 ft | 519 kts | 126° |
| 2026-04-14 15:27 | 50.18788 | 7.38767 | 18013 ft | 515 kts | 122° |
| 2026-04-14 15:27 | 50.17007 | 7.43551 | 16827 ft | 509 kts | 122° |
| 2026-04-14 15:27 | 50.15252 | 7.48257 | 15660 ft | 502 kts | 122° |
| 2026-04-14 15:27 | 50.13496 | 7.52927 | 14665 ft | 491 kts | 122° |
| 2026-04-14 15:28 | 50.11781 | 7.57468 | 13651 ft | 481 kts | 122° |
| 2026-04-14 15:28 | 50.10173 | 7.61929 | 12546 ft | 475 kts | 118° |
| 2026-04-14 15:28 | 50.08801 | 7.66495 | 12199 ft | 451 kts | 112° |
| 2026-04-14 15:28 | 50.07932 | 7.71023 | 12119 ft | 424 kts | 106° |
| 2026-04-14 15:29 | 50.07466 | 7.75491 | 11852 ft | 406 kts | 94° |
| 2026-04-14 15:29 | 50.07438 | 7.79770 | 11601 ft | 389 kts | 88° |
| 2026-04-14 15:29 | 50.07599 | 7.83921 | 11378 ft | 373 kts | 85° |
| 2026-04-14 15:29 | 50.07961 | 7.87788 | 11239 ft | 356 kts | 79° |
| 2026-04-14 15:30 | 50.08369 | 7.91350 | 11135 ft | 340 kts | 79° |
| 2026-04-14 15:30 | 50.08788 | 7.94947 | 11155 ft | 330 kts | 79° |
| 2026-04-14 15:30 | 50.09235 | 7.98424 | 11165 ft | 328 kts | 73° |
| 2026-04-14 15:30 | 50.09944 | 8.01800 | 11184 ft | 329 kts | 70° |
| 2026-04-14 15:31 | 50.10705 | 8.05191 | 11187 ft | 330 kts | 69° |
| 2026-04-14 15:31 | 50.11571 | 8.08505 | 11188 ft | 330 kts | 64° |
| 2026-04-14 15:31 | 50.12507 | 8.11768 | 11188 ft | 330 kts | 64° |
| 2026-04-14 15:31 | 50.13461 | 8.15063 | 11153 ft | 331 kts | 64° |
| 2026-04-14 15:32 | 50.14156 | 8.18500 | 10829 ft | 332 kts | 80° |
| 2026-04-14 15:32 | 50.14164 | 8.22067 | 10573 ft | 327 kts | 104° |
| 2026-04-14 15:32 | 50.13158 | 8.25143 | 10275 ft | 314 kts | 135° |
| 2026-04-14 15:32 | 50.11414 | 8.26967 | 10010 ft | 297 kts | 166° |
| 2026-04-14 15:33 | 50.09421 | 8.27144 | 9735 ft | 279 kts | 198° |
| 2026-04-14 15:33 | 50.07822 | 8.25729 | 9499 ft | 260 kts | 231° |
| 2026-04-14 15:33 | 50.06966 | 8.23339 | 9285 ft | 246 kts | 252° |
| 2026-04-14 15:33 | 50.06382 | 8.20905 | 9059 ft | 240 kts | 251° |
| 2026-04-14 15:34 | 50.05820 | 8.18613 | 8808 ft | 237 kts | 251° |
| 2026-04-14 15:34 | 50.05215 | 8.16146 | 8548 ft | 236 kts | 251° |
| 2026-04-14 15:34 | 50.04619 | 8.13730 | 8290 ft | 236 kts | 251° |
| 2026-04-14 15:34 | 50.04029 | 8.11338 | 8041 ft | 236 kts | 251° |
| 2026-04-14 15:35 | 50.03450 | 8.09001 | 7803 ft | 237 kts | 251° |
| 2026-04-14 15:35 | 50.02856 | 8.06608 | 7549 ft | 236 kts | 251° |
| 2026-04-14 15:35 | 50.02261 | 8.04208 | 7296 ft | 236 kts | 251° |
| 2026-04-14 15:35 | 50.01666 | 8.01821 | 7041 ft | 236 kts | 251° |
| 2026-04-14 15:36 | 50.01070 | 7.99425 | 6799 ft | 236 kts | 251° |
| 2026-04-14 15:36 | 50.00473 | 7.97037 | 6549 ft | 236 kts | 251° |
| 2026-04-14 15:36 | 49.99884 | 7.94665 | 6307 ft | 235 kts | 251° |
| 2026-04-14 15:36 | 49.99289 | 7.92276 | 6049 ft | 235 kts | 251° |
| 2026-04-14 15:37 | 49.98700 | 7.89915 | 5803 ft | 235 kts | 251° |
| 2026-04-14 15:37 | 49.98201 | 7.87477 | 5543 ft | 234 kts | 262° |
| 2026-04-14 15:37 | 49.98130 | 7.84964 | 5317 ft | 229 kts | 279° |
| 2026-04-14 15:37 | 49.98338 | 7.82528 | 5236 ft | 230 kts | 271° |
| 2026-04-14 15:38 | 49.97954 | 7.80066 | 4892 ft | 242 kts | 239° |
| 2026-04-14 15:38 | 49.96639 | 7.78460 | 4451 ft | 249 kts | 196° |
| 2026-04-14 15:38 | 49.94939 | 7.78588 | 4093 ft | 246 kts | 151° |
| 2026-04-14 15:38 | 49.93978 | 7.80561 | 4017 ft | 232 kts | 95° |
| 2026-04-14 15:39 | 49.94301 | 7.82967 | 3971 ft | 226 kts | 66° |
| 2026-04-14 15:39 | 49.94852 | 7.85244 | 4215 ft | 222 kts | 68° |
| 2026-04-14 15:39 | 49.95549 | 7.87353 | 4144 ft | 219 kts | 53° |
| 2026-04-14 15:39 | 49.96487 | 7.89186 | 4024 ft | 209 kts | 54° |
| 2026-04-14 15:40 | 49.97042 | 7.91334 | 4046 ft | 222 kts | 74° |
| 2026-04-14 15:40 | 49.97496 | 7.93666 | 3698 ft | 223 kts | 70° |
| 2026-04-14 15:40 | 49.97945 | 7.95886 | 3860 ft | 212 kts | 70° |
| 2026-04-14 15:40 | 49.98391 | 7.98085 | 4106 ft | 214 kts | 71° |
| 2026-04-14 15:41 | 49.98812 | 8.00344 | 4111 ft | 218 kts | 72° |
| 2026-04-14 15:41 | 49.99165 | 8.02635 | 4020 ft | 218 kts | 77° |
| 2026-04-14 15:41 | 49.99408 | 8.04988 | 3954 ft | 217 kts | 79° |
| 2026-04-14 15:41 | 49.99680 | 8.07282 | 3814 ft | 216 kts | 77° |
| 2026-04-14 15:42 | 49.99873 | 8.09020 | 3574 ft | 217 kts | 77° |
| 2026-04-14 15:42 | 50.00110 | 8.11258 | 3543 ft | 204 kts | 82° |
| 2026-04-14 15:42 | 50.00176 | 8.13397 | 3450 ft | 193 kts | 85° |
| 2026-04-14 15:42 | 50.00290 | 8.15405 | 3324 ft | 184 kts | 74° |
| 2026-04-14 15:43 | 50.00786 | 8.17181 | 3142 ft | 175 kts | 54° |
| 2026-04-14 15:43 | 50.01439 | 8.18780 | 3061 ft | 174 kts | 58° |
| 2026-04-14 15:43 | 50.02026 | 8.20444 | 2984 ft | 174 kts | 60° |
| 2026-04-14 15:43 | 50.02561 | 8.22172 | 2816 ft | 185 kts | 63° |
| 2026-04-14 15:44 | 50.03058 | 8.24040 | 2541 ft | 183 kts | 69° |
| 2026-04-14 15:44 | 50.03413 | 8.25803 | 2634 ft | 164 kts | 72° |
| 2026-04-14 15:44 | 50.03711 | 8.27548 | 2283 ft | 170 kts | 74° |
| 2026-04-14 15:44 | 50.03960 | 8.29293 | 2010 ft | 162 kts | 85° |
| 2026-04-14 15:45 | 50.03939 | 8.30931 | 1441 ft | 169 kts | 93° |
| 2026-04-14 15:45 | 50.03898 | 8.31752 | 1202 ft | 168 kts | 92° |
| 2026-04-14 15:45 | 50.03772 | 8.33601 | 1139 ft | 187 kts | 98° |